Blue Ridge Highway — 3FEY4 — position and weather

sailwx.info

Track history (hours):
 
Tides and Currents Weather Stations Pressure Air Temp Water Temp Dewpoint Dewpoint Depression Visibility Wind Speed Wind Dir Waves Ship Positions

Blue Ridge Highway

Last reported at 2016-Jul-18 23:21 UTC. Time now 2016-Jul-29 15:57 UTC.
Position N 01°59' E 102°14'.
Warning: this ship's position is 10 days out of date.

Length 180 m; draft 8.7 m.

Type: Cargo ship. MMSI: 355558000.

Date/timePositionNaut miles runAvg speedWind from/ knotsBaromVisibWave heightAir tempDewpointWater temp
2016-Jul-18 23:21N 01°59' E 102°14'1214.9
2016-Jul-18 22:33N 01°53' E 102°24'1515.5
2016-Jul-18 21:33N 01°47' E 102°38'6815.6
2016-Jul-18 17:12N 01°12' E 103°37'6 7.6
2016-Jul-18 16:25N 01°14' E 103°42'4 4.6
2016-Jul-18 15:29N 01°17' E 103°45'0 0.0
2016-Jul-18 14:29N 01°17' E 103°45'0 0.0
2016-Jul-18 13:29N 01°17' E 103°45'0 0.0
2016-Jul-18 12:29N 01°17' E 103°45'0 0.0
2016-Jul-18 11:29N 01°17' E 103°45'0 0.0
2016-Jul-18 10:29N 01°17' E 103°45'0 0.0
2016-Jul-18 09:29N 01°17' E 103°45'0 0.0
2016-Jul-18 08:29N 01°17' E 103°45'0 0.0
2016-Jul-18 07:23N 01°17' E 103°45'0 0.0
2016-Jul-18 06:11N 01°17' E 103°45'0 0.0
2016-Jul-18 05:29N 01°17' E 103°45'0 0.0
2016-Jul-18 04:29N 01°17' E 103°45'1 0.6
2016-Jul-18 03:33N 01°17' E 103°45'9 8.9
2016-Jul-18 02:34N 01°13' E 103°53'1010.3
2016-Jul-18 01:33N 01°16' E 104°03'  
2016-Jul-14 06:18N 23°46' E 118°26'5817.8
2016-Jul-14 03:04N 24°25' E 119°12'918.3
2016-Jul-14 02:33N 24°32' E 119°20'42614.2
2016-Jul-12 20:33N 31°19' E 121°45'3 0.3
2016-Jul-12 09:32N 31°19' E 121°41'8 7.7
2016-Jul-12 08:32N 31°17' E 121°50'  
2016-Jul-09 09:33N 34°08' E 134°56'1615.1
2016-Jul-09 08:31N 34°23' E 135°01'1616.9
2016-Jul-09 07:33N 34°35' E 135°15'8 7.1
2016-Jul-09 06:30N 34°42' E 135°17'0 0.0
2016-Jul-09 04:30N 34°42' E 135°17'0 0.0
2016-Jul-09 03:18N 34°42' E 135°17'0 0.0
2016-Jul-09 02:30N 34°42' E 135°17'0 0.0
2016-Jul-09 01:30N 34°42' E 135°17'0 0.1
2016-Jul-09 00:33N 34°42' E 135°17'7 6.6
2016-Jul-08 23:33N 34°35' E 135°16'  
Track history (hours):
 
Tides and Currents Weather Stations Pressure Air Temp Water Temp Dewpoint Dewpoint Depression Visibility Wind Speed Wind Dir Waves Ship Positions

Blue Ridge Highway

Last reported at 2016-Jul-18 23:21 UTC. Time now 2016-Jul-29 15:57 UTC.
Position N 01°59' E 102°14'.
Warning: this ship's position is 10 days out of date.

Length 180 m; draft 8.7 m.

Type: Cargo ship. MMSI: 355558000.

Date/timePositionNaut miles runAvg speedWind from/ knotsBaromVisibWave heightAir tempDewpointWater temp
2016-Jul-18 23:21N 01°59' E 102°14'1214.9
2016-Jul-18 22:33N 01°53' E 102°24'1515.5
2016-Jul-18 21:33N 01°47' E 102°38'6815.6
2016-Jul-18 17:12N 01°12' E 103°37'6 7.6
2016-Jul-18 16:25N 01°14' E 103°42'4 4.6
2016-Jul-18 15:29N 01°17' E 103°45'0 0.0
2016-Jul-18 14:29N 01°17' E 103°45'0 0.0
2016-Jul-18 13:29N 01°17' E 103°45'0 0.0
2016-Jul-18 12:29N 01°17' E 103°45'0 0.0
2016-Jul-18 11:29N 01°17' E 103°45'0 0.0
2016-Jul-18 10:29N 01°17' E 103°45'0 0.0
2016-Jul-18 09:29N 01°17' E 103°45'0 0.0
2016-Jul-18 08:29N 01°17' E 103°45'0 0.0
2016-Jul-18 07:23N 01°17' E 103°45'0 0.0
2016-Jul-18 06:11N 01°17' E 103°45'0 0.0
2016-Jul-18 05:29N 01°17' E 103°45'0 0.0
2016-Jul-18 04:29N 01°17' E 103°45'1 0.6
2016-Jul-18 03:33N 01°17' E 103°45'9 8.9
2016-Jul-18 02:34N 01°13' E 103°53'1010.3
2016-Jul-18 01:33N 01°16' E 104°03'  
2016-Jul-14 06:18N 23°46' E 118°26'5817.8
2016-Jul-14 03:04N 24°25' E 119°12'918.3
2016-Jul-14 02:33N 24°32' E 119°20'42614.2
2016-Jul-12 20:33N 31°19' E 121°45'3 0.3
2016-Jul-12 09:32N 31°19' E 121°41'8 7.7
2016-Jul-12 08:32N 31°17' E 121°50'  
2016-Jul-09 09:33N 34°08' E 134°56'1615.1
2016-Jul-09 08:31N 34°23' E 135°01'1616.9
2016-Jul-09 07:33N 34°35' E 135°15'8 7.1
2016-Jul-09 06:30N 34°42' E 135°17'0 0.0
2016-Jul-09 04:30N 34°42' E 135°17'0 0.0
2016-Jul-09 03:18N 34°42' E 135°17'0 0.0
2016-Jul-09 02:30N 34°42' E 135°17'0 0.0
2016-Jul-09 01:30N 34°42' E 135°17'0 0.1
2016-Jul-09 00:33N 34°42' E 135°17'7 6.6
2016-Jul-08 23:33N 34°35' E 135°16'  

Dump ship's entire track history